Te Marara — CFN6091 — position and weather

sailwx.info

Track history (hours):
 
Tides and Currents Weather Stations Pressure Air Temp Water Temp Dewpoint Dewpoint Depression Visibility Wind Speed Wind Dir Waves Ship Positions

Te Marara

Last reported at 2017-Oct-24 08:41 UTC. Time now 2017-Nov-19 12:21 UTC.
Position N 47°17' W 001°53'.
Warning: this ship's position is 26 days out of date.

Length 15 m.

Type: Sailing vessel. MMSI: 316015966.

Date/timePositionNaut miles runAvg speedWind from/ knotsBaromVisibWave heightAir tempDewpointWater temp
2017-Oct-24 08:41N 47°17' W 001°53'0 0.0
2017-Oct-24 08:29N 47°17' W 001°53'0 0.2
2017-Oct-24 07:56N 47°17' W 001°53'0 0.5
2017-Oct-24 07:29N 47°17' W 001°53'0 0.0
2017-Oct-24 06:47N 47°17' W 001°53'0 0.0
2017-Oct-24 06:29N 47°17' W 001°53'0 0.0
2017-Oct-23 18:07N 47°17' W 001°53'0 0.0
2017-Oct-23 17:43N 47°17' W 001°53'0 0.0
2017-Oct-23 17:25N 47°17' W 001°53'0 0.0
2017-Oct-23 16:58N 47°17' W 001°53'2 4.8
2017-Oct-23 16:30N 47°17' W 001°56'3 6.2
2017-Oct-23 16:00N 47°18' W 002°01'5 7.7
2017-Oct-23 15:20N 47°18' W 002°09'  
2017-Oct-15 19:21N 47°18' W 002°31'0 0.0
2017-Oct-15 18:57N 47°18' W 002°31'1 2.7
2017-Oct-15 18:30N 47°19' W 002°32'3 6.2
2017-Oct-15 17:59N 47°20' W 002°36'4 7.0
2017-Oct-15 17:26N 47°20' W 002°42'3 7.1
2017-Oct-15 17:00N 47°20' W 002°46'3 6.9
2017-Oct-15 16:30N 47°21' W 002°51'1 1.9
2017-Oct-15 15:58N 47°21' W 002°53'0 0.0
2017-Oct-14 10:54N 47°21' W 002°53'1 2.2
2017-Oct-14 10:30N 47°21' W 002°52'2 4.6
2017-Oct-14 10:00N 47°23' W 002°50'3 5.2
2017-Oct-14 09:30N 47°25' W 002°47'2 4.2
2017-Oct-14 09:00N 47°25' W 002°44'  
Track history (hours):
 
Tides and Currents Weather Stations Pressure Air Temp Water Temp Dewpoint Dewpoint Depression Visibility Wind Speed Wind Dir Waves Ship Positions

Te Marara

Last reported at 2017-Oct-24 08:41 UTC. Time now 2017-Nov-19 12:21 UTC.
Position N 47°17' W 001°53'.
Warning: this ship's position is 26 days out of date.

Length 15 m.

Type: Sailing vessel. MMSI: 316015966.

Date/timePositionNaut miles runAvg speedWind from/ knotsBaromVisibWave heightAir tempDewpointWater temp
2017-Oct-24 08:41N 47°17' W 001°53'0 0.0
2017-Oct-24 08:29N 47°17' W 001°53'0 0.2
2017-Oct-24 07:56N 47°17' W 001°53'0 0.5
2017-Oct-24 07:29N 47°17' W 001°53'0 0.0
2017-Oct-24 06:47N 47°17' W 001°53'0 0.0
2017-Oct-24 06:29N 47°17' W 001°53'0 0.0
2017-Oct-23 18:07N 47°17' W 001°53'0 0.0
2017-Oct-23 17:43N 47°17' W 001°53'0 0.0
2017-Oct-23 17:25N 47°17' W 001°53'0 0.0
2017-Oct-23 16:58N 47°17' W 001°53'2 4.8
2017-Oct-23 16:30N 47°17' W 001°56'3 6.2
2017-Oct-23 16:00N 47°18' W 002°01'5 7.7
2017-Oct-23 15:20N 47°18' W 002°09'  
2017-Oct-15 19:21N 47°18' W 002°31'0 0.0
2017-Oct-15 18:57N 47°18' W 002°31'1 2.7
2017-Oct-15 18:30N 47°19' W 002°32'3 6.2
2017-Oct-15 17:59N 47°20' W 002°36'4 7.0
2017-Oct-15 17:26N 47°20' W 002°42'3 7.1
2017-Oct-15 17:00N 47°20' W 002°46'3 6.9
2017-Oct-15 16:30N 47°21' W 002°51'1 1.9
2017-Oct-15 15:58N 47°21' W 002°53'0 0.0
2017-Oct-14 10:54N 47°21' W 002°53'1 2.2
2017-Oct-14 10:30N 47°21' W 002°52'2 4.6
2017-Oct-14 10:00N 47°23' W 002°50'3 5.2
2017-Oct-14 09:30N 47°25' W 002°47'2 4.2
2017-Oct-14 09:00N 47°25' W 002°44'  

Dump ship's entire track history